sensor_id;sensor_type;location;lat;lon;timestamp;pressure;altitude;pressure_sealevel;temperature;humidity
73101;BME280;61288;53.446;-2.266;2022-11-20T00:01:16;100646.50;;;5.31;88.63
73101;BME280;61288;53.446;-2.266;2022-11-20T00:03:43;100643.00;;;5.34;88.33
73101;BME280;61288;53.446;-2.266;2022-11-20T00:06:11;100640.38;;;5.37;87.98
73101;BME280;61288;53.446;-2.266;2022-11-20T00:08:37;100644.63;;;5.38;88.39
73101;BME280;61288;53.446;-2.266;2022-11-20T00:11:08;100634.34;;;5.40;88.61
73101;BME280;61288;53.446;-2.266;2022-11-20T00:13:37;100640.31;;;5.40;88.73
73101;BME280;61288;53.446;-2.266;2022-11-20T00:16:05;100644.56;;;5.41;88.97
73101;BME280;61288;53.446;-2.266;2022-11-20T00:18:32;100628.28;;;5.42;89.15
73101;BME280;61288;53.446;-2.266;2022-11-20T00:21:17;100637.72;;;5.42;89.01
73101;BME280;61288;53.446;-2.266;2022-11-20T00:23:44;100640.25;;;5.43;88.59
73101;BME280;61288;53.446;-2.266;2022-11-20T00:26:14;100629.94;;;5.45;88.81
73101;BME280;61288;53.446;-2.266;2022-11-20T00:28:41;100624.84;;;5.43;88.84
73101;BME280;61288;53.446;-2.266;2022-11-20T00:31:12;100627.38;;;5.45;89.31
73101;BME280;61288;53.446;-2.266;2022-11-20T00:33:38;100628.25;;;5.44;89.39
73101;BME280;61288;53.446;-2.266;2022-11-20T00:36:10;100621.38;;;5.44;89.53
73101;BME280;61288;53.446;-2.266;2022-11-20T00:38:39;100616.25;;;5.44;89.67
73101;BME280;61288;53.446;-2.266;2022-11-20T00:41:07;100615.38;;;5.45;89.52
73101;BME280;61288;53.446;-2.266;2022-11-20T00:43:34;100609.41;;;5.45;90.28
73101;BME280;61288;53.446;-2.266;2022-11-20T00:46:06;100613.63;;;5.47;90.29
73101;BME280;61288;53.446;-2.266;2022-11-20T00:48:32;100605.88;;;5.49;89.82
73101;BME280;61288;53.446;-2.266;2022-11-20T00:50:57;100596.47;;;5.48;90.23
73101;BME280;61288;53.446;-2.266;2022-11-20T00:53:23;100587.88;;;5.49;89.82
73101;BME280;61288;53.446;-2.266;2022-11-20T00:56:04;100588.75;;;5.49;90.13
73101;BME280;61288;53.446;-2.266;2022-11-20T00:58:34;100581.91;;;5.48;90.19
73101;BME280;61288;53.446;-2.266;2022-11-20T01:01:11;100577.66;;;5.47;90.96
73101;BME280;61288;53.446;-2.266;2022-11-20T01:03:43;100581.06;;;5.46;91.00
73101;BME280;61288;53.446;-2.266;2022-11-20T01:06:23;100583.69;;;5.45;91.37
73101;BME280;61288;53.446;-2.266;2022-11-20T01:08:52;100574.31;;;5.42;92.02
73101;BME280;61288;53.446;-2.266;2022-11-20T01:11:25;100572.66;;;5.40;92.41
73101;BME280;61288;53.446;-2.266;2022-11-20T01:13:55;100563.28;;;5.37;92.84
73101;BME280;61288;53.446;-2.266;2022-11-20T01:16:26;100566.81;;;5.33;93.24
73101;BME280;61288;53.446;-2.266;2022-11-20T01:18:58;100554.03;;;5.28;93.63
73101;BME280;61288;53.446;-2.266;2022-11-20T01:21:29;100554.97;;;5.26;94.27
73101;BME280;61288;53.446;-2.266;2022-11-20T01:23:55;100547.34;;;5.23;94.83
73101;BME280;61288;53.446;-2.266;2022-11-20T01:26:23;100543.97;;;5.19;94.98
73101;BME280;61288;53.446;-2.266;2022-11-20T01:28:50;100541.44;;;5.17;95.34
73101;BME280;61288;53.446;-2.266;2022-11-20T01:31:21;100536.38;;;5.14;96.30
73101;BME280;61288;53.446;-2.266;2022-11-20T01:33:50;100532.13;;;5.12;96.32
73101;BME280;61288;53.446;-2.266;2022-11-20T01:36:16;100518.50;;;5.08;96.26
73101;BME280;61288;53.446;-2.266;2022-11-20T01:38:45;100512.56;;;5.06;96.98
73101;BME280;61288;53.446;-2.266;2022-11-20T01:41:12;100503.28;;;5.00;96.12
73101;BME280;61288;53.446;-2.266;2022-11-20T01:44:01;100504.19;;;4.96;96.78
73101;BME280;61288;53.446;-2.266;2022-11-20T01:46:27;100504.25;;;4.93;97.15
73101;BME280;61288;53.446;-2.266;2022-11-20T01:49:16;100490.66;;;4.89;97.80
73101;BME280;61288;53.446;-2.266;2022-11-20T01:51:56;100489.78;;;4.89;97.96
73101;BME280;61288;53.446;-2.266;2022-11-20T01:54:41;100477.88;;;4.86;97.84
73101;BME280;61288;53.446;-2.266;2022-11-20T01:57:10;100464.19;;;4.86;98.33
73101;BME280;61288;53.446;-2.266;2022-11-20T01:59:44;100462.50;;;4.85;98.43
73101;BME280;61288;53.446;-2.266;2022-11-20T02:02:12;100464.28;;;4.81;99.02
73101;BME280;61288;53.446;-2.266;2022-11-20T02:04:38;100450.63;;;4.79;99.19
73101;BME280;61288;53.446;-2.266;2022-11-20T02:07:04;100436.97;;;4.77;99.62
73101;BME280;61288;53.446;-2.266;2022-11-20T02:09:30;100437.03;;;4.75;99.30
73101;BME280;61288;53.446;-2.266;2022-11-20T02:12:02;100435.34;;;4.73;99.29
73101;BME280;61288;53.446;-2.266;2022-11-20T02:14:48;100423.38;;;4.72;99.83
73101;BME280;61288;53.446;-2.266;2022-11-20T02:17:18;100422.56;;;4.71;100.00
73101;BME280;61288;53.446;-2.266;2022-11-20T02:19:54;100420.06;;;4.68;99.88
73101;BME280;61288;53.446;-2.266;2022-11-20T02:22:29;100404.69;;;4.67;100.00
73101;BME280;61288;53.446;-2.266;2022-11-20T02:25:02;100403.84;;;4.66;100.00
73101;BME280;61288;53.446;-2.266;2022-11-20T02:27:29;100395.28;;;4.66;100.00
73101;BME280;61288;53.446;-2.266;2022-11-20T02:29:58;100389.31;;;4.65;100.00
73101;BME280;61288;53.446;-2.266;2022-11-20T02:32:30;100374.81;;;4.64;100.00
73101;BME280;61288;53.446;-2.266;2022-11-20T02:34:56;100379.09;;;4.63;100.00
73101;BME280;61288;53.446;-2.266;2022-11-20T02:37:23;100379.94;;;4.64;100.00
73101;BME280;61288;53.446;-2.266;2022-11-20T02:39:52;100377.31;;;4.66;100.00
73101;BME280;61288;53.446;-2.266;2022-11-20T02:42:18;100366.22;;;4.65;100.00
73101;BME280;61288;53.446;-2.266;2022-11-20T02:44:43;100367.94;;;4.65;100.00
73101;BME280;61288;53.446;-2.266;2022-11-20T02:47:09;100367.06;;;4.66;100.00
73101;BME280;61288;53.446;-2.266;2022-11-20T02:49:35;100360.25;;;4.65;100.00
73101;BME280;61288;53.446;-2.266;2022-11-20T02:52:03;100349.94;;;4.66;100.00
73101;BME280;61288;53.446;-2.266;2022-11-20T02:54:31;100351.66;;;4.66;100.00
73101;BME280;61288;53.446;-2.266;2022-11-20T02:56:58;100355.97;;;4.65;100.00
73101;BME280;61288;53.446;-2.266;2022-11-20T02:59:25;100349.16;;;4.64;100.00
73101;BME280;61288;53.446;-2.266;2022-11-20T03:01:56;100343.13;;;4.65;100.00
73101;BME280;61288;53.446;-2.266;2022-11-20T03:04:22;100330.31;;;4.65;100.00
73101;BME280;61288;53.446;-2.266;2022-11-20T03:06:49;100331.13;;;4.66;100.00
73101;BME280;61288;53.446;-2.266;2022-11-20T03:09:17;100320.88;;;4.66;100.00
73101;BME280;61288;53.446;-2.266;2022-11-20T03:11:45;100316.59;;;4.66;100.00
73101;BME280;61288;53.446;-2.266;2022-11-20T03:14:12;100317.41;;;4.67;100.00
73101;BME280;61288;53.446;-2.266;2022-11-20T03:16:41;100308.91;;;4.65;100.00
73101;BME280;61288;53.446;-2.266;2022-11-20T03:19:08;100311.47;;;4.65;100.00
73101;BME280;61288;53.446;-2.266;2022-11-20T03:21:34;100306.38;;;4.63;100.00
73101;BME280;61288;53.446;-2.266;2022-11-20T03:23:59;100303.78;;;4.65;100.00
73101;BME280;61288;53.446;-2.266;2022-11-20T03:26:26;100293.53;;;4.63;100.00
73101;BME280;61288;53.446;-2.266;2022-11-20T03:32:23;100297.81;;;4.64;100.00
73101;BME280;61288;53.446;-2.266;2022-11-20T03:34:49;100291.81;;;4.63;100.00
73101;BME280;61288;53.446;-2.266;2022-11-20T03:37:14;100281.53;;;4.65;100.00
73101;BME280;61288;53.446;-2.266;2022-11-20T03:39:42;100279.81;;;4.66;100.00
73101;BME280;61288;53.446;-2.266;2022-11-20T03:42:08;100272.16;;;4.64;100.00
73101;BME280;61288;53.446;-2.266;2022-11-20T03:44:54;100269.53;;;4.66;100.00
73101;BME280;61288;53.446;-2.266;2022-11-20T03:47:20;100261.84;;;4.66;100.00
73101;BME280;61288;53.446;-2.266;2022-11-20T03:49:45;100265.22;;;4.68;100.00
73101;BME280;61288;53.446;-2.266;2022-11-20T03:52:11;100271.19;;;4.68;100.00
73101;BME280;61288;53.446;-2.266;2022-11-20T03:54:36;100255.81;;;4.68;100.00
73101;BME280;61288;53.446;-2.266;2022-11-20T03:57:02;100261.75;;;4.70;100.00
73101;BME280;61288;53.446;-2.266;2022-11-20T03:59:27;100257.41;;;4.72;100.00
73101;BME280;61288;53.446;-2.266;2022-11-20T04:01:53;100260.81;;;4.73;100.00
73101;BME280;61288;53.446;-2.266;2022-11-20T04:04:18;100252.22;;;4.74;100.00
73101;BME280;61288;53.446;-2.266;2022-11-20T04:06:46;100254.78;;;4.75;100.00
73101;BME280;61288;53.446;-2.266;2022-11-20T04:09:13;100246.13;;;4.78;100.00
73101;BME280;61288;53.446;-2.266;2022-11-20T04:11:42;100246.13;;;4.80;100.00
73101;BME280;61288;53.446;-2.266;2022-11-20T04:14:14;100252.06;;;4.82;100.00
73101;BME280;61288;53.446;-2.266;2022-11-20T04:16:40;100249.47;;;4.83;100.00
73101;BME280;61288;53.446;-2.266;2022-11-20T04:19:11;100257.97;;;4.85;100.00
73101;BME280;61288;53.446;-2.266;2022-11-20T04:21:37;100255.34;;;4.87;100.00
73101;BME280;61288;53.446;-2.266;2022-11-20T04:24:03;100259.59;;;4.88;100.00
73101;BME280;61288;53.446;-2.266;2022-11-20T04:26:29;100256.16;;;4.89;100.00
73101;BME280;61288;53.446;-2.266;2022-11-20T04:28:56;100259.59;;;4.89;100.00
73101;BME280;61288;53.446;-2.266;2022-11-20T04:31:24;100257.84;;;4.90;100.00
73101;BME280;61288;53.446;-2.266;2022-11-20T04:33:53;100255.28;;;4.90;100.00
73101;BME280;61288;53.446;-2.266;2022-11-20T04:36:24;100256.97;;;4.91;100.00
73101;BME280;61288;53.446;-2.266;2022-11-20T04:38:58;100248.38;;;4.92;100.00
73101;BME280;61288;53.446;-2.266;2022-11-20T04:41:27;100245.72;;;4.95;100.00
73101;BME280;61288;53.446;-2.266;2022-11-20T04:43:55;100238.88;;;4.96;100.00
73101;BME280;61288;53.446;-2.266;2022-11-20T04:46:26;100244.81;;;4.98;100.00
73101;BME280;61288;53.446;-2.266;2022-11-20T04:48:55;100252.53;;;4.98;100.00
73101;BME280;61288;53.446;-2.266;2022-11-20T04:51:20;100258.53;;;4.98;100.00
73101;BME280;61288;53.446;-2.266;2022-11-20T04:53:48;100264.47;;;5.00;100.00
73101;BME280;61288;53.446;-2.266;2022-11-20T04:56:14;100255.88;;;5.01;100.00
73101;BME280;61288;53.446;-2.266;2022-11-20T04:58:41;100253.25;;;5.03;100.00
73101;BME280;61288;53.446;-2.266;2022-11-20T05:01:13;100241.22;;;5.05;100.00
73101;BME280;61288;53.446;-2.266;2022-11-20T05:03:39;100245.47;;;5.06;100.00
73101;BME280;61288;53.446;-2.266;2022-11-20T05:06:10;100244.56;;;5.09;100.00
73101;BME280;61288;53.446;-2.266;2022-11-20T05:08:36;100249.69;;;5.09;100.00
73101;BME280;61288;53.446;-2.266;2022-11-20T05:11:07;100247.13;;;5.09;100.00
73101;BME280;61288;53.446;-2.266;2022-11-20T05:13:33;100247.06;;;5.10;100.00
73101;BME280;61288;53.446;-2.266;2022-11-20T05:16:10;100259.03;;;5.11;100.00
73101;BME280;61288;53.446;-2.266;2022-11-20T05:18:37;100257.31;;;5.12;100.00
73101;BME280;61288;53.446;-2.266;2022-11-20T05:21:02;100258.16;;;5.12;100.00
73101;BME280;61288;53.446;-2.266;2022-11-20T05:23:30;100252.09;;;5.15;100.00
73101;BME280;61288;53.446;-2.266;2022-11-20T05:25:57;100257.22;;;5.16;100.00
73101;BME280;61288;53.446;-2.266;2022-11-20T05:28:27;100247.78;;;5.17;100.00
73101;BME280;61288;53.446;-2.266;2022-11-20T05:33:35;100258.03;;;5.18;100.00
73101;BME280;61288;53.446;-2.266;2022-11-20T05:36:02;100251.16;;;5.19;100.00
73101;BME280;61288;53.446;-2.266;2022-11-20T05:38:30;100252.81;;;5.20;100.00
73101;BME280;61288;53.446;-2.266;2022-11-20T05:41:03;100254.50;;;5.21;100.00
73101;BME280;61288;53.446;-2.266;2022-11-20T05:43:32;100247.66;;;5.22;100.00
73101;BME280;61288;53.446;-2.266;2022-11-20T05:45:59;100257.06;;;5.23;100.00
73101;BME280;61288;53.446;-2.266;2022-11-20T05:48:26;100245.91;;;5.24;100.00
73101;BME280;61288;53.446;-2.266;2022-11-20T05:50:51;100254.50;;;5.23;100.00
73101;BME280;61288;53.446;-2.266;2022-11-20T05:53:17;100249.34;;;5.23;100.00
73101;BME280;61288;53.446;-2.266;2022-11-20T05:55:43;100242.53;;;5.22;100.00
73101;BME280;61288;53.446;-2.266;2022-11-20T05:58:08;100247.69;;;5.20;100.00
73101;BME280;61288;53.446;-2.266;2022-11-20T06:00:34;100243.50;;;5.17;100.00
73101;BME280;61288;53.446;-2.266;2022-11-20T06:03:03;100228.97;;;5.16;100.00
73101;BME280;61288;53.446;-2.266;2022-11-20T06:05:29;100232.41;;;5.15;100.00
73101;BME280;61288;53.446;-2.266;2022-11-20T06:07:54;100231.56;;;5.15;100.00
73101;BME280;61288;53.446;-2.266;2022-11-20T06:10:19;100240.16;;;5.14;100.00
73101;BME280;61288;53.446;-2.266;2022-11-20T06:12:45;100242.75;;;5.12;100.00
73101;BME280;61288;53.446;-2.266;2022-11-20T06:15:10;100242.72;;;5.14;100.00
73101;BME280;61288;53.446;-2.266;2022-11-20T06:17:37;100245.28;;;5.14;100.00
73101;BME280;61288;53.446;-2.266;2022-11-20T06:20:03;100240.13;;;5.15;100.00
73101;BME280;61288;53.446;-2.266;2022-11-20T06:22:28;100241.84;;;5.15;100.00
73101;BME280;61288;53.446;-2.266;2022-11-20T06:24:56;100238.44;;;5.14;100.00
73101;BME280;61288;53.446;-2.266;2022-11-20T06:27:21;100243.56;;;5.14;100.00
73101;BME280;61288;53.446;-2.266;2022-11-20T06:29:47;100243.53;;;5.16;100.00
73101;BME280;61288;53.446;-2.266;2022-11-20T06:32:12;100245.25;;;5.15;100.00
73101;BME280;61288;53.446;-2.266;2022-11-20T06:34:39;100248.63;;;5.17;100.00
73101;BME280;61288;53.446;-2.266;2022-11-20T06:37:05;100243.53;;;5.16;100.00
73101;BME280;61288;53.446;-2.266;2022-11-20T06:39:30;100250.41;;;5.15;100.00
73101;BME280;61288;53.446;-2.266;2022-11-20T06:41:56;100247.84;;;5.15;100.00
73101;BME280;61288;53.446;-2.266;2022-11-20T06:44:22;100241.03;;;5.13;100.00
73101;BME280;61288;53.446;-2.266;2022-11-20T06:46:48;100241.06;;;5.11;100.00
73101;BME280;61288;53.446;-2.266;2022-11-20T06:49:15;100236.94;;;5.05;100.00
73101;BME280;61288;53.446;-2.266;2022-11-20T06:51:41;100238.72;;;5.02;100.00
73101;BME280;61288;53.446;-2.266;2022-11-20T06:54:06;100237.09;;;4.99;100.00
73101;BME280;61288;53.446;-2.266;2022-11-20T06:56:32;100245.72;;;4.97;100.00
73101;BME280;61288;53.446;-2.266;2022-11-20T06:58:57;100249.19;;;4.94;100.00
73101;BME280;61288;53.446;-2.266;2022-11-20T07:01:23;100250.13;;;4.91;100.00
73101;BME280;61288;53.446;-2.266;2022-11-20T07:03:50;100245.88;;;4.90;100.00
73101;BME280;61288;53.446;-2.266;2022-11-20T07:06:16;100245.88;;;4.89;100.00
73101;BME280;61288;53.446;-2.266;2022-11-20T07:08:42;100246.78;;;4.88;100.00
73101;BME280;61288;53.446;-2.266;2022-11-20T07:11:08;100248.47;;;4.89;100.00
73101;BME280;61288;53.446;-2.266;2022-11-20T07:13:33;100256.97;;;4.91;100.00
73101;BME280;61288;53.446;-2.266;2022-11-20T07:16:01;100280.06;;;4.91;100.00
73101;BME280;61288;53.446;-2.266;2022-11-20T07:18:27;100277.47;;;4.93;100.00
73101;BME280;61288;53.446;-2.266;2022-11-20T07:20:52;100265.47;;;4.93;100.00
73101;BME280;61288;53.446;-2.266;2022-11-20T07:23:18;100262.91;;;4.93;100.00
73101;BME280;61288;53.446;-2.266;2022-11-20T07:25:43;100266.34;;;4.92;100.00
73101;BME280;61288;53.446;-2.266;2022-11-20T07:28:13;100264.72;;;4.89;100.00
73101;BME280;61288;53.446;-2.266;2022-11-20T07:30:38;100270.72;;;4.88;100.00
73101;BME280;61288;53.446;-2.266;2022-11-20T07:33:04;100276.66;;;4.90;100.00
73101;BME280;61288;53.446;-2.266;2022-11-20T07:35:29;100268.91;;;4.94;100.00
73101;BME280;61288;53.446;-2.266;2022-11-20T07:37:55;100275.66;;;4.96;100.00
73101;BME280;61288;53.446;-2.266;2022-11-20T07:40:20;100273.06;;;4.98;100.00
73101;BME280;61288;53.446;-2.266;2022-11-20T07:42:49;100276.44;;;5.00;100.00
73101;BME280;61288;53.446;-2.266;2022-11-20T07:45:19;100279.81;;;5.02;100.00
73101;BME280;61288;53.446;-2.266;2022-11-20T07:47:49;100280.63;;;5.04;100.00
73101;BME280;61288;53.446;-2.266;2022-11-20T07:50:16;100284.88;;;5.05;100.00
73101;BME280;61288;53.446;-2.266;2022-11-20T07:52:42;100288.31;;;5.05;100.00
73101;BME280;61288;53.446;-2.266;2022-11-20T07:55:09;100290.88;;;5.04;100.00
73101;BME280;61288;53.446;-2.266;2022-11-20T07:57:34;100287.50;;;5.02;100.00
73101;BME280;61288;53.446;-2.266;2022-11-20T08:00:00;100297.88;;;4.99;100.00
73101;BME280;61288;53.446;-2.266;2022-11-20T08:02:26;100302.13;;;5.00;100.00
73101;BME280;61288;53.446;-2.266;2022-11-20T08:04:52;100301.22;;;5.02;100.00
73101;BME280;61288;53.446;-2.266;2022-11-20T08:07:20;100296.88;;;5.04;100.00
73101;BME280;61288;53.446;-2.266;2022-11-20T08:09:46;100295.94;;;5.07;100.00
73101;BME280;61288;53.446;-2.266;2022-11-20T08:12:19;100296.66;;;5.14;100.00
73101;BME280;61288;53.446;-2.266;2022-11-20T08:15:05;100299.06;;;5.20;100.00
73101;BME280;61288;53.446;-2.266;2022-11-20T08:17:32;100292.13;;;5.24;100.00
73101;BME280;61288;53.446;-2.266;2022-11-20T08:20:00;100285.19;;;5.27;100.00
73101;BME280;61288;53.446;-2.266;2022-11-20T08:22:26;100299.72;;;5.28;100.00
73101;BME280;61288;53.446;-2.266;2022-11-20T08:24:52;100294.53;;;5.30;100.00
73101;BME280;61288;53.446;-2.266;2022-11-20T08:27:17;100303.91;;;5.32;100.00
73101;BME280;61288;53.446;-2.266;2022-11-20T08:29:43;100305.56;;;5.35;100.00
73101;BME280;61288;53.446;-2.266;2022-11-20T08:32:09;100307.22;;;5.36;100.00
73101;BME280;61288;53.446;-2.266;2022-11-20T08:34:36;100298.66;;;5.37;100.00
73101;BME280;61288;53.446;-2.266;2022-11-20T08:37:03;100298.63;;;5.39;100.00
73101;BME280;61288;53.446;-2.266;2022-11-20T08:39:29;100307.13;;;5.41;100.00
73101;BME280;61288;53.446;-2.266;2022-11-20T08:41:55;100304.59;;;5.39;100.00
73101;BME280;61288;53.446;-2.266;2022-11-20T08:44:20;100310.53;;;5.41;100.00
73101;BME280;61288;53.446;-2.266;2022-11-20T08:46:46;100320.72;;;5.44;100.00
73101;BME280;61288;53.446;-2.266;2022-11-20T08:49:13;100317.28;;;5.45;100.00
73101;BME280;61288;53.446;-2.266;2022-11-20T08:51:40;100318.09;;;5.47;100.00
73101;BME280;61288;53.446;-2.266;2022-11-20T08:54:12;100316.38;;;5.48;100.00
73101;BME280;61288;53.446;-2.266;2022-11-20T08:56:39;100315.47;;;5.49;100.00
73101;BME280;61288;53.446;-2.266;2022-11-20T08:59:05;100330.00;;;5.50;100.00
73101;BME280;61288;53.446;-2.266;2022-11-20T09:01:32;100320.63;;;5.49;100.00
73101;BME280;61288;53.446;-2.266;2022-11-20T09:03:57;100321.47;;;5.49;100.00
73101;BME280;61288;53.446;-2.266;2022-11-20T09:06:25;100324.88;;;5.50;100.00
73101;BME280;61288;53.446;-2.266;2022-11-20T09:08:54;100335.06;;;5.53;100.00
73101;BME280;61288;53.446;-2.266;2022-11-20T09:11:20;100322.22;;;5.53;100.00
73101;BME280;61288;53.446;-2.266;2022-11-20T09:13:47;100321.34;;;5.54;100.00
73101;BME280;61288;53.446;-2.266;2022-11-20T09:16:12;100317.00;;;5.56;100.00
73101;BME280;61288;53.446;-2.266;2022-11-20T09:18:38;100321.22;;;5.59;100.00
73101;BME280;61288;53.446;-2.266;2022-11-20T09:21:10;100320.25;;;5.63;100.00
73101;BME280;61288;53.446;-2.266;2022-11-20T09:23:36;100318.47;;;5.67;100.00
73101;BME280;61288;53.446;-2.266;2022-11-20T09:26:13;100319.22;;;5.70;100.00
73101;BME280;61288;53.446;-2.266;2022-11-20T09:28:39;100323.19;;;5.82;100.00
73101;BME280;61288;53.446;-2.266;2022-11-20T09:31:11;100327.16;;;5.94;100.00
73101;BME280;61288;53.446;-2.266;2022-11-20T09:33:42;100320.97;;;6.03;98.92
73101;BME280;61288;53.446;-2.266;2022-11-20T09:36:09;100308.66;;;6.13;98.73
73101;BME280;61288;53.446;-2.266;2022-11-20T09:38:35;100314.53;;;6.18;98.60
73101;BME280;61288;53.446;-2.266;2022-11-20T09:41:05;100312.78;;;6.20;98.12
73101;BME280;61288;53.446;-2.266;2022-11-20T09:46:19;100322.25;;;6.18;97.65
73101;BME280;61288;53.446;-2.266;2022-11-20T09:54:23;100332.81;;;6.39;96.97
73101;BME280;61288;53.446;-2.266;2022-11-20T09:56:59;100329.22;;;6.44;96.39
73101;BME280;61288;53.446;-2.266;2022-11-20T09:59:46;100333.34;;;6.50;96.20
73101;BME280;61288;53.446;-2.266;2022-11-20T10:02:27;100339.22;;;6.55;95.84
73101;BME280;61288;53.446;-2.266;2022-11-20T10:05:00;100347.56;;;6.62;95.26
73101;BME280;61288;53.446;-2.266;2022-11-20T10:07:37;100344.78;;;6.70;95.10
73101;BME280;61288;53.446;-2.266;2022-11-20T10:10:19;100351.19;;;6.85;94.99
73101;BME280;61288;53.446;-2.266;2022-11-20T10:15:34;100345.47;;;7.03;93.70
73101;BME280;61288;53.446;-2.266;2022-11-20T10:18:16;100356.19;;;7.18;93.41
73101;BME280;61288;53.446;-2.266;2022-11-20T10:21:02;100363.59;;;7.27;92.83
73101;BME280;61288;53.446;-2.266;2022-11-20T10:26:16;100360.13;;;7.55;90.85
73101;BME280;61288;53.446;-2.266;2022-11-20T10:31:36;100372.03;;;7.59;90.38
73101;BME280;61288;53.446;-2.266;2022-11-20T10:34:15;100369.41;;;7.61;90.91
73101;BME280;61288;53.446;-2.266;2022-11-20T10:36:58;100368.22;;;7.44;90.43
73101;BME280;61288;53.446;-2.266;2022-11-20T10:45:33;100349.88;;;7.54;89.28
73101;BME280;61288;53.446;-2.266;2022-11-20T10:50:35;100341.41;;;7.75;87.75
73101;BME280;61288;53.446;-2.266;2022-11-20T10:56:09;100342.88;;;7.83;86.27
73101;BME280;61288;53.446;-2.266;2022-11-20T10:59:00;100338.22;;;7.69;85.60
73101;BME280;61288;53.446;-2.266;2022-11-20T11:01:28;100336.66;;;7.63;87.23
73101;BME280;61288;53.446;-2.266;2022-11-20T11:03:55;100332.44;;;7.60;87.92
73101;BME280;61288;53.446;-2.266;2022-11-20T11:06:27;100332.44;;;7.60;89.71
73101;BME280;61288;53.446;-2.266;2022-11-20T11:08:59;100322.94;;;7.62;88.77
73101;BME280;61288;53.446;-2.266;2022-11-20T11:11:33;100329.28;;;7.77;88.65
73101;BME280;61288;53.446;-2.266;2022-11-20T11:14:10;100318.16;;;7.77;86.70
73101;BME280;61288;53.446;-2.266;2022-11-20T11:16:50;100309.41;;;7.81;86.60
73101;BME280;61288;53.446;-2.266;2022-11-20T11:19:17;100314.19;;;7.92;87.88
73101;BME280;61288;53.446;-2.266;2022-11-20T11:21:54;100308.91;;;7.95;85.70
73101;BME280;61288;53.446;-2.266;2022-11-20T11:24:28;100307.13;;;7.97;85.57
73101;BME280;61288;53.446;-2.266;2022-11-20T11:26:59;100302.63;;;8.02;84.75
73101;BME280;61288;53.446;-2.266;2022-11-20T11:29:30;100301.63;;;8.06;85.21
73101;BME280;61288;53.446;-2.266;2022-11-20T11:32:08;100303.41;;;8.04;84.69
73101;BME280;61288;53.446;-2.266;2022-11-20T11:34:34;100290.50;;;8.04;83.38
73101;BME280;61288;53.446;-2.266;2022-11-20T11:37:00;100288.91;;;8.02;81.77
73101;BME280;61288;53.446;-2.266;2022-11-20T11:39:28;100290.59;;;8.03;83.94
73101;BME280;61288;53.446;-2.266;2022-11-20T11:41:54;100293.66;;;8.13;84.78
73101;BME280;61288;53.446;-2.266;2022-11-20T11:44:30;100297.94;;;8.14;83.01
73101;BME280;61288;53.446;-2.266;2022-11-20T11:47:26;100300.50;;;8.14;82.48
73101;BME280;61288;53.446;-2.266;2022-11-20T11:52:53;100287.50;;;8.17;81.74
73101;BME280;61288;53.446;-2.266;2022-11-20T11:55:38;100283.78;;;8.24;81.72
73101;BME280;61288;53.446;-2.266;2022-11-20T11:58:26;100282.66;;;8.31;83.38
73101;BME280;61288;53.446;-2.266;2022-11-20T12:01:04;100266.91;;;8.37;82.83
73101;BME280;61288;53.446;-2.266;2022-11-20T12:03:38;100267.00;;;8.36;83.81
73101;BME280;61288;53.446;-2.266;2022-11-20T12:06:12;100258.22;;;8.40;82.91
73101;BME280;61288;53.446;-2.266;2022-11-20T12:11:49;100252.03;;;8.22;80.86
73101;BME280;61288;53.446;-2.266;2022-11-20T12:14:34;100245.41;;;8.15;82.33
73101;BME280;61288;53.446;-2.266;2022-11-20T12:17:02;100242.25;;;8.06;80.23
73101;BME280;61288;53.446;-2.266;2022-11-20T12:19:33;100245.03;;;8.02;82.50
73101;BME280;61288;53.446;-2.266;2022-11-20T12:50:36;100254.72;;;7.71;82.98
73101;BME280;61288;53.446;-2.266;2022-11-20T12:53:31;100253.94;;;7.69;81.71
73101;BME280;61288;53.446;-2.266;2022-11-20T12:59:56;100266.91;;;7.68;81.69
73101;BME280;61288;53.446;-2.266;2022-11-20T13:01:53;100272.94;;;7.66;83.40
73101;BME280;61288;53.446;-2.266;2022-11-20T13:07:04;100261.78;;;7.66;84.77
73101;BME280;61288;53.446;-2.266;2022-11-20T13:09:31;100258.38;;;7.65;83.87
73101;BME280;61288;53.446;-2.266;2022-11-20T13:12:15;100248.00;;;7.67;83.11
73101;BME280;61288;53.446;-2.266;2022-11-20T13:14:47;100254.13;;;7.64;83.41
73101;BME280;61288;53.446;-2.266;2022-11-20T13:17:24;100266.22;;;7.62;83.51
73101;BME280;61288;53.446;-2.266;2022-11-20T13:19:55;100261.16;;;7.59;84.22
73101;BME280;61288;53.446;-2.266;2022-11-20T13:22:25;100254.38;;;7.57;83.19
73101;BME280;61288;53.446;-2.266;2022-11-20T13:24:52;100257.00;;;7.55;83.19
73101;BME280;61288;53.446;-2.266;2022-11-20T13:27:20;100263.94;;;7.53;83.32
73101;BME280;61288;53.446;-2.266;2022-11-20T13:30:17;100267.50;;;7.50;83.92
73101;BME280;61288;53.446;-2.266;2022-11-20T13:32:56;100259.88;;;7.47;83.59
73101;BME280;61288;53.446;-2.266;2022-11-20T13:35:33;100265.97;;;7.45;85.49
73101;BME280;61288;53.446;-2.266;2022-11-20T13:38:21;100261.63;;;7.45;85.47
73101;BME280;61288;53.446;-2.266;2022-11-20T13:40:55;100260.84;;;7.43;84.62
73101;BME280;61288;53.446;-2.266;2022-11-20T13:43:33;100262.59;;;7.43;84.33
73101;BME280;61288;53.446;-2.266;2022-11-20T13:46:05;100258.25;;;7.43;84.66
73101;BME280;61288;53.446;-2.266;2022-11-20T13:48:45;100253.19;;;7.42;83.68
73101;BME280;61288;53.446;-2.266;2022-11-20T13:59:32;100250.63;;;7.40;83.02
73101;BME280;61288;53.446;-2.266;2022-11-20T14:02:00;100247.22;;;7.40;83.49
73101;BME280;61288;53.446;-2.266;2022-11-20T14:04:33;100243.88;;;7.37;84.83
73101;BME280;61288;53.446;-2.266;2022-11-20T14:07:00;100242.97;;;7.39;83.42
73101;BME280;61288;53.446;-2.266;2022-11-20T14:09:29;100255.78;;;7.40;83.49
73101;BME280;61288;53.446;-2.266;2022-11-20T14:11:55;100248.97;;;7.39;84.90
73101;BME280;61288;53.446;-2.266;2022-11-20T14:14:25;100255.88;;;7.39;84.33
73101;BME280;61288;53.446;-2.266;2022-11-20T14:16:53;100248.97;;;7.39;83.32
73101;BME280;61288;53.446;-2.266;2022-11-20T14:21:49;100253.22;;;7.40;82.56
73101;BME280;61288;53.446;-2.266;2022-11-20T14:24:22;100248.97;;;7.39;84.52